Terminal Aerodrome Forecast
Issued by NWS Louisville, KY

Home | Current Version | Previous Version | Text Only | Print | Product List | Glossary On
Versions: 1 2 3 4 5 6 7 8 9 10 11 12 13 14
000
FTUS43 KLMK 232000 AAA
TAFBWG
TAF AMD
KBWG 232028Z 2320/2418 28007KT P6SM SCT050 BKN060
     FM240400 29005KT P6SM VCSH BKN025
     FM240900 31004KT 4SM -DZ BR BKN008
     FM241500 04007KT P6SM BKN010=

USA.gov is the U.S. government's official web portal to all federal, state and local government web resources and services.